createdAt,value
2018-06-08T00:02:24.714Z,49.10
2018-06-08T00:04:52.969Z,49.30
2018-06-08T00:07:21.193Z,49.40
2018-06-08T00:09:50.402Z,49.10
2018-06-08T00:12:18.667Z,48.60
2018-06-08T00:14:46.925Z,48.90
2018-06-08T00:17:15.151Z,48.70
2018-06-08T00:19:43.401Z,49.10
2018-06-08T00:22:11.878Z,49.10
2018-06-08T00:24:40.545Z,48.80
2018-06-08T00:27:08.874Z,48.60
2018-06-08T00:29:37.109Z,48.60
2018-06-08T00:32:05.836Z,48.30
2018-06-08T00:34:34.895Z,48.60
2018-06-08T00:37:03.307Z,48.90
2018-06-08T00:39:31.536Z,49.40
2018-06-08T00:41:59.777Z,48.90
2018-06-08T00:44:28.195Z,48.60
2018-06-08T00:46:56.883Z,48.90
2018-06-08T00:49:25.238Z,48.30
2018-06-08T00:51:53.549Z,48.60
2018-06-08T00:54:21.824Z,48.10
2018-06-08T00:57:01.438Z,47.90
2018-06-08T00:59:29.720Z,48.60
2018-06-08T01:01:59.919Z,48.80
2018-06-08T01:04:28.142Z,49.10
2018-06-08T01:06:56.914Z,49.20
2018-06-08T01:09:26.218Z,49.50
2018-06-08T01:11:54.463Z,49.00
2018-06-08T01:14:32.606Z,48.90
2018-06-08T01:17:01.182Z,49.60
2018-06-08T01:19:33.794Z,49.90
2018-06-08T01:22:02.286Z,49.50
2018-06-08T01:24:30.763Z,49.20
2018-06-08T01:26:59.309Z,49.20
2018-06-08T01:29:27.543Z,49.20
2018-06-08T01:31:56.194Z,49.70
2018-06-08T01:34:25.020Z,49.90
2018-06-08T01:36:53.338Z,49.80
2018-06-08T01:39:21.577Z,49.70
2018-06-08T01:41:50.019Z,50.10
2018-06-08T01:44:18.866Z,50.30
2018-06-08T01:46:47.550Z,50.30
2018-06-08T01:49:15.900Z,50.30
2018-06-08T01:51:44.207Z,50.30
2018-06-08T01:54:13.386Z,50.20
2018-06-08T01:56:41.770Z,50.80
2018-06-08T01:59:10.419Z,49.60
2018-06-08T02:01:38.682Z,49.70
2018-06-08T02:04:06.994Z,49.40
2018-06-08T02:06:35.266Z,49.50
2018-06-08T02:09:03.962Z,49.60
2018-06-08T02:11:33.474Z,49.70
2018-06-08T02:14:01.860Z,50.40
2018-06-08T02:16:30.119Z,50.50
2018-06-08T02:18:58.475Z,50.70
2018-06-08T02:21:27.694Z,50.60
2018-06-08T02:23:56.029Z,50.60
2018-06-08T02:26:24.385Z,50.30
2018-06-08T02:31:20.668Z,50.50
2018-06-08T02:33:49.482Z,50.50
2018-06-08T02:36:18.203Z,50.10
2018-06-08T02:38:46.411Z,49.80
2018-06-08T02:41:14.754Z,49.70
2018-06-08T02:43:43.060Z,49.70
2018-06-08T02:46:11.510Z,50.20
2018-06-08T02:48:40.559Z,50.40
2018-06-08T02:51:08.784Z,50.60
2018-06-08T02:53:37.042Z,50.90
2018-06-08T02:56:06.259Z,51.50
2018-06-08T02:58:34.702Z,51.40
2018-06-08T03:01:03.711Z,51.20
2018-06-08T03:03:32.025Z,51.60
2018-06-08T03:06:00.212Z,51.30
2018-06-08T03:08:28.587Z,51.60
2018-06-08T03:10:57.028Z,51.60
2018-06-08T03:13:26.214Z,52.00
2018-06-08T03:15:54.458Z,51.90
2018-06-08T03:18:22.677Z,52.00
2018-06-08T03:20:50.975Z,51.80
2018-06-08T03:23:20.198Z,52.20
2018-06-08T03:25:48.530Z,52.00
2018-06-08T03:28:16.940Z,51.70
2018-06-08T03:30:45.184Z,51.40
2018-06-08T03:33:13.556Z,51.50
2018-06-08T03:35:41.887Z,51.50
2018-06-08T03:38:10.761Z,51.30
2018-06-08T03:40:38.990Z,51.40
2018-06-08T03:43:07.227Z,51.20
2018-06-08T03:45:35.443Z,51.20
2018-06-08T03:48:03.699Z,51.50
2018-06-08T03:50:31.918Z,51.20
2018-06-08T03:53:00.297Z,50.90
2018-06-08T03:55:28.581Z,50.70
2018-06-08T03:57:56.963Z,50.60
2018-06-08T04:00:25.359Z,51.10
2018-06-08T04:02:53.566Z,50.90
2018-06-08T04:05:21.869Z,50.60
2018-06-08T04:07:50.366Z,50.70
2018-06-08T04:10:18.640Z,50.50
2018-06-08T04:12:46.891Z,50.40
2018-06-08T04:15:15.203Z,50.40
2018-06-08T04:17:43.503Z,50.00
2018-06-08T04:20:12.004Z,49.80
2018-06-08T04:22:40.751Z,50.20
2018-06-08T04:25:11.121Z,49.60
2018-06-08T04:30:07.365Z,49.20
2018-06-08T04:32:35.606Z,49.20
2018-06-08T04:35:04.676Z,49.20
2018-06-08T04:37:33.198Z,49.00
2018-06-08T04:40:01.431Z,49.30
2018-06-08T04:42:29.696Z,49.00
2018-06-08T04:44:57.953Z,49.50
2018-06-08T04:47:26.489Z,49.40
2018-06-08T04:49:54.740Z,49.40
2018-06-08T04:52:22.978Z,49.00
2018-06-08T04:54:51.252Z,49.20
2018-06-08T04:57:19.565Z,49.20
2018-06-08T04:59:48.848Z,49.30
2018-06-08T05:02:17.092Z,49.10
2018-06-08T05:04:45.330Z,48.50
2018-06-08T05:07:13.591Z,48.50
2018-06-08T05:09:42.553Z,49.10
2018-06-08T05:12:11.470Z,48.50
2018-06-08T05:14:39.689Z,48.60
2018-06-08T05:17:07.983Z,48.60
2018-06-08T05:19:36.214Z,48.20
2018-06-08T05:22:04.909Z,47.60
2018-06-08T05:24:34.324Z,47.80
2018-06-08T05:27:02.581Z,47.60
2018-06-08T05:29:30.786Z,47.50
2018-06-08T05:31:59.005Z,47.20
2018-06-08T05:34:28.183Z,47.20
2018-06-08T05:36:56.628Z,47.10
2018-06-08T05:39:25.023Z,47.00
2018-06-08T05:41:53.353Z,46.90
2018-06-08T05:44:21.680Z,46.90
2018-06-08T05:46:50.520Z,47.10
2018-06-08T05:49:19.600Z,47.30
2018-06-08T05:51:48.094Z,47.40
2018-06-08T05:54:16.358Z,47.20
2018-06-08T05:56:44.555Z,46.50
2018-06-08T05:59:12.894Z,46.10
2018-06-08T06:01:41.286Z,45.90
2018-06-08T06:04:09.547Z,46.00
2018-06-08T06:06:37.766Z,45.90
2018-06-08T06:09:08.075Z,45.10
2018-06-08T06:11:36.532Z,45.20
2018-06-08T06:14:04.998Z,45.10
2018-06-08T06:16:33.335Z,45.30
2018-06-08T06:19:01.562Z,45.10
2018-06-08T06:21:29.793Z,44.80
2018-06-08T06:23:58.047Z,43.60
2018-06-08T06:26:26.311Z,43.50
2018-06-08T06:28:57.186Z,43.10
2018-06-08T06:31:25.450Z,42.90
2018-06-08T06:33:53.666Z,42.50
2018-06-08T06:36:21.938Z,42.60
2018-06-08T06:38:50.245Z,42.40
2018-06-08T06:41:18.575Z,42.10
2018-06-08T06:43:46.790Z,42.20
2018-06-08T06:46:15.072Z,42.30
2018-06-08T06:48:43.978Z,41.90
2018-06-08T06:51:12.306Z,41.90
2018-06-08T06:53:40.622Z,41.30
2018-06-08T06:56:08.849Z,41.00
2018-06-08T06:58:37.085Z,40.60
2018-06-08T07:01:06.051Z,39.30
2018-06-08T07:03:35.278Z,38.80
2018-06-08T07:06:03.714Z,38.40
2018-06-08T07:08:31.954Z,37.90
2018-06-08T07:11:00.188Z,36.90
2018-06-08T07:13:28.393Z,37.40
2018-06-08T07:15:57.676Z,37.70
2018-06-08T07:18:25.890Z,37.90
2018-06-08T07:20:54.114Z,38.10
2018-06-08T07:23:22.339Z,38.00
2018-06-08T07:25:50.586Z,38.50
2018-06-08T07:28:19.028Z,38.00
2018-06-08T07:30:47.281Z,37.70
2018-06-08T07:33:15.538Z,39.40
2018-06-08T07:35:43.827Z,38.70
2018-06-08T07:38:12.155Z,39.50
2018-06-08T07:40:40.615Z,38.70
2018-06-08T07:43:08.858Z,37.90
2018-06-08T07:45:37.062Z,36.90
2018-06-08T07:48:06.009Z,36.00
2018-06-08T07:50:34.902Z,35.10
2018-06-08T07:53:03.154Z,35.20
2018-06-08T07:55:31.461Z,34.60
2018-06-08T07:57:59.703Z,33.90
2018-06-08T08:00:27.927Z,32.40
2018-06-08T08:02:56.426Z,31.80
2018-06-08T08:05:24.647Z,29.80
2018-06-08T08:07:52.952Z,28.50
2018-06-08T08:10:21.102Z,26.60
2018-06-08T08:12:49.906Z,25.60
2018-06-08T08:15:18.163Z,25.80
2018-06-08T08:17:46.386Z,23.70
2018-06-08T08:20:14.658Z,23.30
2018-06-08T08:22:42.998Z,22.60
2018-06-08T08:25:11.343Z,22.30
2018-06-08T08:27:39.565Z,23.00
2018-06-08T08:30:07.799Z,22.30
2018-06-08T08:32:36.032Z,21.80
2018-06-08T08:35:04.939Z,21.00
2018-06-08T08:37:33.347Z,21.30
2018-06-08T08:40:02.527Z,20.30
2018-06-08T08:42:30.768Z,19.80
2018-06-08T08:44:58.988Z,19.70
2018-06-08T08:47:27.926Z,19.20
2018-06-08T08:49:58.911Z,19.70
2018-06-08T08:52:27.370Z,19.60
2018-06-08T08:54:55.895Z,18.70
2018-06-08T08:57:26.842Z,18.00
2018-06-08T08:59:55.090Z,18.20
2018-06-08T09:02:23.319Z,17.70
2018-06-08T09:04:51.566Z,17.20
2018-06-08T09:07:20.912Z,17.30
2018-06-08T09:09:49.980Z,16.80
2018-06-08T09:12:18.221Z,17.30
2018-06-08T09:14:46.420Z,17.50
2018-06-08T09:17:14.642Z,17.70
2018-06-08T09:22:10.982Z,16.90
2018-06-08T09:24:39.187Z,16.10
2018-06-08T09:27:07.418Z,16.60
2018-06-08T09:29:35.678Z,16.90
2018-06-08T09:32:23.907Z,17.30
2018-06-08T09:34:53.347Z,17.40
2018-06-08T09:37:21.981Z,17.90
2018-06-08T09:39:50.718Z,20.40
2018-06-08T09:42:19.306Z,19.90
2018-06-08T09:44:47.512Z,19.90
2018-06-08T09:47:15.702Z,19.30
2018-06-08T09:49:43.960Z,19.50
2018-06-08T09:52:12.613Z,19.60
2018-06-08T09:54:41.686Z,19.70
2018-06-08T09:57:09.863Z,19.80
2018-06-08T09:59:38.098Z,19.90
2018-06-08T10:02:06.313Z,20.30
2018-06-08T10:04:35.552Z,19.90
2018-06-08T10:07:04.042Z,19.10
2018-06-08T10:09:32.252Z,18.50
2018-06-08T10:12:00.464Z,18.50
2018-06-08T10:14:28.675Z,17.90
2018-06-08T10:16:57.105Z,17.30
2018-06-08T10:19:25.307Z,17.50
2018-06-08T10:21:53.590Z,17.30
2018-06-08T10:24:21.755Z,16.70
2018-06-08T10:26:50.416Z,16.10
2018-06-08T10:29:18.705Z,15.80
2018-06-08T10:31:46.901Z,15.90
2018-06-08T10:34:15.098Z,16.70
2018-06-08T10:36:43.418Z,16.80
2018-06-08T10:39:11.645Z,17.40
2018-06-08T10:41:39.839Z,18.10
2018-06-08T10:44:08.046Z,17.60
2018-06-08T10:46:36.319Z,17.70
2018-06-08T10:49:05.378Z,16.20
2018-06-08T10:51:33.682Z,14.10
2018-06-08T10:54:01.866Z,13.50
2018-06-08T10:56:30.081Z,14.10
2018-06-08T10:58:58.375Z,14.10
2018-06-08T11:01:27.214Z,13.90
2018-06-08T11:03:55.678Z,14.50
2018-06-08T11:06:23.879Z,14.40
2018-06-08T11:08:52.102Z,14.10
2018-06-08T11:11:20.535Z,14.10
2018-06-08T11:13:49.021Z,14.00
2018-06-08T11:16:17.420Z,13.90
2018-06-08T11:18:45.643Z,14.10
2018-06-08T11:21:13.854Z,14.20
2018-06-08T11:23:42.738Z,14.20
2018-06-08T11:26:11.212Z,14.40
2018-06-08T11:28:39.418Z,15.00
2018-06-08T11:31:07.618Z,15.40
2018-06-08T11:33:35.847Z,16.60
2018-06-08T11:36:05.626Z,17.50
2018-06-08T11:38:34.840Z,18.50
2018-06-08T11:41:03.314Z,19.00
2018-06-08T11:43:42.894Z,19.90
2018-06-08T11:46:11.776Z,20.90
2018-06-08T11:48:40.010Z,20.80
2018-06-08T11:51:08.221Z,20.40
2018-06-08T11:53:36.459Z,19.60
2018-06-08T11:56:04.856Z,19.30
2018-06-08T11:58:33.076Z,20.00
2018-06-08T12:01:01.284Z,19.20
2018-06-08T12:03:29.555Z,19.50
2018-06-08T12:05:57.943Z,19.30
2018-06-08T12:08:27.217Z,19.10
2018-06-08T12:10:56.299Z,20.20
2018-06-08T12:13:50.797Z,19.70
2018-06-08T12:16:20.279Z,20.20
2018-06-08T12:19:02.163Z,21.10
2018-06-08T12:21:30.535Z,20.70
2018-06-08T12:23:58.849Z,19.80
2018-06-08T12:26:28.001Z,19.40
2018-06-08T12:28:57.039Z,19.70
2018-06-08T12:31:25.439Z,18.40
2018-06-08T12:33:53.703Z,18.80
2018-06-08T12:36:22.062Z,20.30
2018-06-08T12:38:51.481Z,19.00
2018-06-08T12:41:20.402Z,18.90
2018-06-08T12:43:49.815Z,20.10
2018-06-08T12:46:18.085Z,20.80
2018-06-08T12:48:46.396Z,20.20
2018-06-08T12:51:14.626Z,19.40
2018-06-08T12:53:42.994Z,19.90
2018-06-08T12:56:11.294Z,20.10
2018-06-08T13:01:07.542Z,19.70
2018-06-08T13:03:35.891Z,19.10
2018-06-08T13:06:04.151Z,18.60
2018-06-08T13:08:32.432Z,17.70
2018-06-08T13:11:00.691Z,18.00
2018-06-08T13:13:28.997Z,18.00
2018-06-08T13:15:57.979Z,17.90
2018-06-08T13:18:26.233Z,17.10
2018-06-08T13:20:54.480Z,16.30
2018-06-08T13:23:22.821Z,16.30
2018-06-08T13:25:51.473Z,18.00
2018-06-08T13:28:20.138Z,18.90
2018-06-08T13:30:49.141Z,19.60
2018-06-08T13:33:17.395Z,20.40
2018-06-08T13:35:45.852Z,20.80
2018-06-08T13:38:14.072Z,20.40
2018-06-08T13:40:42.386Z,19.70
2018-06-08T13:43:11.509Z,19.30
2018-06-08T13:45:39.742Z,18.70
2018-06-08T13:48:08.153Z,19.40
2018-06-08T13:50:36.515Z,20.30
2018-06-08T13:53:05.148Z,18.90
2018-06-08T13:55:33.968Z,17.90
2018-06-08T13:58:02.347Z,17.20
2018-06-08T14:00:30.647Z,17.90
2018-06-08T14:02:58.923Z,18.20
2018-06-08T14:05:27.253Z,18.20
2018-06-08T14:07:55.507Z,17.10
2018-06-08T14:10:23.917Z,16.80
2018-06-08T14:12:52.199Z,16.70
2018-06-08T14:15:20.918Z,16.40
2018-06-08T14:17:49.256Z,15.90
2018-06-08T14:20:17.496Z,15.50
2018-06-08T14:22:45.900Z,15.10
2018-06-08T14:25:14.220Z,14.70
2018-06-08T14:27:42.714Z,15.10
2018-06-08T14:30:11.200Z,15.60
2018-06-08T14:32:39.482Z,16.20
2018-06-08T14:35:07.878Z,16.10
2018-06-08T14:37:36.180Z,15.70
2018-06-08T14:40:04.547Z,15.60
2018-06-08T14:42:33.640Z,16.10
2018-06-08T14:45:01.838Z,15.70
2018-06-08T14:47:30.146Z,15.90
2018-06-08T14:49:58.623Z,16.00
2018-06-08T14:52:27.091Z,16.10
2018-06-08T14:54:55.367Z,15.50
2018-06-08T14:57:23.623Z,15.80
2018-06-08T14:59:51.990Z,16.00
2018-06-08T15:02:20.564Z,16.30
2018-06-08T15:04:48.910Z,15.90
2018-06-08T15:07:17.547Z,15.80
2018-06-08T15:09:45.915Z,15.80
2018-06-08T15:12:14.162Z,15.50
2018-06-08T15:14:42.943Z,16.00
2018-06-08T15:17:11.895Z,16.70
2018-06-08T15:19:40.455Z,16.80
2018-06-08T15:22:09.082Z,17.70
2018-06-08T15:24:37.462Z,17.70
2018-06-08T15:27:05.891Z,17.40
2018-06-08T15:29:34.286Z,17.00
2018-06-08T15:32:02.635Z,17.60
2018-06-08T15:34:30.978Z,17.70
2018-06-08T15:36:59.303Z,17.90
2018-06-08T15:39:27.711Z,17.80
2018-06-08T15:41:56.210Z,17.00
2018-06-08T15:44:24.583Z,17.20
2018-06-08T15:46:52.834Z,16.80
2018-06-08T15:49:21.286Z,17.80
2018-06-08T15:51:49.686Z,18.60
2018-06-08T15:54:18.044Z,19.20
2018-06-08T15:56:46.292Z,19.90
2018-06-08T15:59:14.531Z,20.60
2018-06-08T16:01:43.952Z,21.40
2018-06-08T16:04:12.718Z,21.70
2018-06-08T16:06:41.171Z,22.40
2018-06-08T16:09:09.847Z,23.30
2018-06-08T16:11:38.088Z,23.60
2018-06-08T16:16:34.900Z,24.00
2018-06-08T16:19:03.106Z,24.80
2018-06-08T16:21:31.335Z,24.40
2018-06-08T16:23:59.574Z,24.20
2018-06-08T16:26:27.958Z,24.90
2018-06-08T16:28:56.759Z,24.80
2018-06-08T16:31:25.748Z,24.90
2018-06-08T16:36:21.975Z,25.50
2018-06-08T16:38:50.413Z,25.10
2018-06-08T16:41:18.657Z,25.50
2018-06-08T16:43:47.011Z,26.10
2018-06-08T16:46:15.222Z,25.80
2018-06-08T16:48:43.466Z,26.30
2018-06-08T16:51:11.836Z,26.60
2018-06-08T16:53:40.108Z,27.10
2018-06-08T16:56:08.545Z,28.00
2018-06-08T16:58:37.074Z,28.80
2018-06-08T17:01:05.534Z,29.00
2018-06-08T17:03:33.916Z,29.90
2018-06-08T17:06:02.145Z,29.40
2018-06-08T17:08:30.415Z,30.10
2018-06-08T17:10:58.714Z,30.00
2018-06-08T17:13:27.110Z,29.70
2018-06-08T17:15:55.323Z,30.60
2018-06-08T17:18:23.562Z,29.60
2018-06-08T17:20:51.790Z,30.20
2018-06-08T17:23:20.194Z,29.80
2018-06-08T17:25:48.467Z,30.10
2018-06-08T17:28:16.757Z,30.80
2018-06-08T17:30:45.151Z,30.40
2018-06-08T17:33:13.531Z,30.00
2018-06-08T17:35:41.988Z,30.30
2018-06-08T17:38:10.267Z,30.40
2018-06-08T17:40:38.470Z,30.10
2018-06-08T17:43:06.729Z,31.00
2018-06-08T17:45:35.074Z,30.10
2018-06-08T17:48:03.503Z,30.20
2018-06-08T17:50:31.743Z,30.10
2018-06-08T17:53:00.486Z,30.50
2018-06-08T17:55:28.728Z,30.40
2018-06-08T17:57:57.683Z,30.50
2018-06-08T18:00:25.967Z,31.00
2018-06-08T18:02:54.256Z,31.00
2018-06-08T18:05:22.514Z,30.90
2018-06-08T18:07:51.540Z,31.50
2018-06-08T18:10:20.357Z,32.60
2018-06-08T18:12:48.794Z,31.30
2018-06-08T18:15:17.046Z,32.00
2018-06-08T18:17:45.457Z,32.80
2018-06-08T18:20:13.803Z,32.10
2018-06-08T18:22:42.833Z,32.40
2018-06-08T18:25:11.139Z,31.40
2018-06-08T18:27:39.436Z,31.80
2018-06-08T18:30:07.698Z,32.20
2018-06-08T18:32:35.991Z,32.30
2018-06-08T18:35:04.566Z,32.30
2018-06-08T18:37:32.906Z,32.20
2018-06-08T18:40:01.300Z,33.10
2018-06-08T18:42:29.663Z,32.90
2018-06-08T18:44:58.934Z,33.70
2018-06-08T18:47:28.075Z,33.90
2018-06-08T18:49:56.494Z,34.10
2018-06-08T18:52:24.858Z,34.20
2018-06-08T18:54:53.095Z,34.20
2018-06-08T18:57:22.602Z,33.40
2018-06-08T18:59:50.899Z,33.40
2018-06-08T19:02:19.475Z,33.50
2018-06-08T19:04:47.728Z,33.70
2018-06-08T19:07:16.087Z,33.40
2018-06-08T19:09:44.288Z,33.80
2018-06-08T19:12:13.512Z,34.40
2018-06-08T19:14:41.823Z,35.10
2018-06-08T19:17:10.114Z,35.10
2018-06-08T19:22:06.498Z,35.20
2018-06-08T19:24:35.275Z,35.50
2018-06-08T19:27:04.034Z,35.80
2018-06-08T19:29:32.474Z,36.20
2018-06-08T19:32:01.048Z,35.80
2018-06-08T19:34:29.671Z,35.90
2018-06-08T19:36:58.338Z,36.30
2018-06-08T19:39:27.002Z,36.30
2018-06-08T19:41:55.234Z,36.80
2018-06-08T19:44:23.476Z,36.60
2018-06-08T19:46:51.738Z,37.20
2018-06-08T19:49:20.757Z,37.00
2018-06-08T19:51:49.127Z,37.70
2018-06-08T19:54:17.490Z,37.60
2018-06-08T19:56:45.703Z,37.40
2018-06-08T19:59:14.005Z,37.40
2018-06-08T20:01:42.428Z,37.70
2018-06-08T20:04:10.723Z,37.80
2018-06-08T20:06:39.349Z,37.10
2018-06-08T20:09:08.800Z,37.60
2018-06-08T20:11:37.058Z,37.60
2018-06-08T20:14:05.535Z,37.50
2018-06-08T20:16:34.007Z,37.70
2018-06-08T20:19:02.313Z,37.60
2018-06-08T20:21:30.529Z,37.40
2018-06-08T20:23:58.907Z,37.50
2018-06-08T20:26:27.326Z,37.60
2018-06-08T20:28:55.584Z,37.60
2018-06-08T20:31:23.810Z,37.50
2018-06-08T20:33:52.124Z,38.00
2018-06-08T20:36:21.157Z,38.00
2018-06-08T20:38:49.402Z,38.60
2018-06-08T20:41:17.699Z,38.50
2018-06-08T20:43:45.962Z,38.60
2018-06-08T20:46:14.222Z,38.60
2018-06-08T20:48:42.557Z,39.00
2018-06-08T20:51:11.241Z,39.00
2018-06-08T20:53:39.499Z,39.00
2018-06-08T20:56:07.746Z,39.00
2018-06-08T20:58:36.130Z,39.30
2018-06-08T21:01:04.740Z,39.20
2018-06-08T21:03:33.519Z,39.20
2018-06-08T21:06:01.863Z,39.50
2018-06-08T21:08:30.103Z,39.80
2018-06-08T21:10:58.838Z,39.70
2018-06-08T21:13:27.219Z,39.60
2018-06-08T21:15:55.469Z,39.50
2018-06-08T21:18:23.717Z,39.30
2018-06-08T21:20:51.955Z,39.40
2018-06-08T21:23:20.309Z,38.90
2018-06-08T21:25:48.597Z,39.20
2018-06-08T21:28:16.785Z,39.60
2018-06-08T21:30:45.066Z,39.20
2018-06-08T21:33:13.795Z,39.60
2018-06-08T21:35:42.238Z,39.40
2018-06-08T21:38:10.474Z,39.60
2018-06-08T21:40:38.764Z,39.70
2018-06-08T21:43:07.015Z,40.00
2018-06-08T21:45:35.375Z,40.20
2018-06-08T21:48:04.257Z,40.00
2018-06-08T21:50:32.463Z,40.30
2018-06-08T21:53:00.681Z,40.40
2018-06-08T21:55:29.003Z,40.00
2018-06-08T21:57:57.738Z,40.70
2018-06-08T22:00:25.999Z,40.30
2018-06-08T22:02:54.250Z,40.60
2018-06-08T22:05:22.462Z,41.30
2018-06-08T22:07:51.199Z,41.40
2018-06-08T22:10:19.658Z,41.50
2018-06-08T22:12:47.928Z,41.60
2018-06-08T22:15:16.210Z,41.80
2018-06-08T22:17:44.418Z,42.50
2018-06-08T22:20:13.657Z,42.40
2018-06-08T22:22:42.498Z,42.60
2018-06-08T22:25:10.745Z,42.70
2018-06-08T22:27:39.032Z,42.80
2018-06-08T22:30:07.279Z,42.60
2018-06-08T22:32:36.098Z,42.60
2018-06-08T22:35:05.476Z,42.60
2018-06-08T22:37:34.168Z,42.30
2018-06-08T22:40:02.454Z,42.70
2018-06-08T22:42:30.670Z,42.80
2018-06-08T22:44:58.927Z,42.90
2018-06-08T22:47:27.198Z,42.90
2018-06-08T22:49:55.410Z,42.80
2018-06-08T22:52:23.638Z,43.30
2018-06-08T22:54:51.902Z,43.40
2018-06-08T22:57:20.206Z,43.30
2018-06-08T22:59:48.707Z,43.40
2018-06-08T23:02:16.884Z,43.30
2018-06-08T23:04:45.098Z,43.30
2018-06-08T23:07:13.652Z,43.30
2018-06-08T23:09:42.736Z,43.20
2018-06-08T23:12:10.969Z,43.30
2018-06-08T23:14:39.199Z,43.30
2018-06-08T23:17:07.494Z,43.40
2018-06-08T23:19:38.694Z,43.30
2018-06-08T23:22:06.926Z,43.50
2018-06-08T23:24:36.210Z,44.30
2018-06-08T23:27:04.826Z,43.90
2018-06-08T23:29:33.106Z,43.70
2018-06-08T23:32:01.362Z,43.70
2018-06-08T23:34:29.637Z,43.60
2018-06-08T23:36:58.122Z,43.70
2018-06-08T23:39:27.458Z,44.60
2018-06-08T23:41:55.687Z,44.20
2018-06-08T23:44:23.939Z,44.50
2018-06-08T23:46:52.169Z,44.40
2018-06-08T23:49:20.762Z,45.60
2018-06-08T23:51:49.163Z,44.90
2018-06-08T23:54:17.466Z,45.10
2018-06-08T23:56:45.690Z,44.80
2018-06-08T23:59:14.163Z,44.70
